Quakertown, New Jersey
Current Conditions -  °F | °C
As of 9:53 AM on Sunday 23 Nov 2014 (Local Time) from KSMQ Reporting Station
Overcast Overcast  
Wind Chill: 46°   Ceiling: 11000
Heat Index: 46°   Visibility: 10mi
Dew Point: 23°   Wind: 3mph
Humidity: 40%   Direction: NA
Pressure: 30.21"   Gusts: NA
Location:  40.57°N, 74.94°W
Report Text: KSMQ 231453Z AUTO VRB03KT 10SM OVC110 08/M05 A3021 RMK AO2 SLP230 T00781050 51003
Loading
Personal Weather Stations






























Interactive Weather Map New forecast layout! Learn more

10-Day Weather Forecast

Advertisements
Track Severe Weather on mobile